Time;durP1;ratioP1;P1;durP2;ratioP2;P2;SDS_P1;SDS_P2;PMS_P1;PMS_P2;Temp;Humidity;BMP_temperature;BMP_pressure;BME280_temperature;BME280_humidity;BME280_pressure;Samples;Min_cycle;Max_cycle;Signal;HPM_P1;HPM_P2
2022/03/08 00:01:26;;;;;;;;;;;;;;;21.04;38.07;102136.97;5078704;28;4097;-49
2022/03/08 00:03:53;;;;;;;;;;;;;;;21.04;37.95;102139.84;5078189;28;5325;-50
2022/03/08 00:06:19;;;;;;;;;;;;;;;21.02;38.09;102133.94;5078031;28;4375;-50
2022/03/08 00:08:46;;;;;;;;;;;;;;;21.01;38.08;102132.44;5077569;28;4375;-49
2022/03/08 00:11:12;;;;;;;;;;;;;;;21.01;38.03;102141.09;5076473;28;5293;-50
2022/03/08 00:13:39;;;;;;;;;;;;;;;21.01;37.96;102126.69;5078330;28;4244;-48
2022/03/08 00:16:05;;;;;;;;;;;;;;;20.99;38.00;102135.19;5078024;28;3976;-48
2022/03/08 00:18:32;;;;;;;;;;;;;;;20.99;37.96;102130.19;5075999;28;4338;-50
2022/03/08 00:20:58;;;;;;;;;;;;;;;20.99;38.05;102135.94;5077769;28;4522;-50
2022/03/08 00:23:25;;;;;;;;;;;;;;;20.98;38.11;102145.19;5076776;28;4126;-50
2022/03/08 00:25:52;;;;;;;;;;;;;;;20.96;38.07;102137.19;5075977;28;4030;-53
2022/03/08 00:28:18;;;;;;;;;;;;;;;20.97;38.01;102140.81;5077333;28;4372;-48
2022/03/08 00:30:44;;;;;;;;;;;;;;;20.97;37.86;102141.56;5075262;28;4126;-50
2022/03/08 00:33:12;;;;;;;;;;;;;;;20.96;37.98;102142.19;5077092;28;4083;-52
2022/03/08 00:35:38;;;;;;;;;;;;;;;20.98;37.97;102136.56;5077649;28;4009;-49
2022/03/08 00:38:04;;;;;;;;;;;;;;;20.99;37.88;102130.19;5075459;28;3995;-49
2022/03/08 00:40:31;;;;;;;;;;;;;;;21.03;37.75;102139.09;5060352;28;4341;-50
2022/03/08 00:42:58;;;;;;;;;;;;;;;21.05;37.89;102144.22;5076783;28;4301;-48
2022/03/08 00:45:25;;;;;;;;;;;;;;;21.02;37.97;102139.72;5076667;28;4007;-48
2022/03/08 00:47:53;;;;;;;;;;;;;;;21.02;38.11;102139.72;5077610;28;6385;-50
2022/03/08 00:50:20;;;;;;;;;;;;;;;21.01;38.09;102138.97;5076318;28;4136;-50
2022/03/08 00:52:47;;;;;;;;;;;;;;;21.01;38.07;102141.09;5078120;28;4407;-48
2022/03/08 00:55:13;;;;;;;;;;;;;;;21.00;38.08;102140.31;5074583;28;4159;-49
2022/03/08 00:57:40;;;;;;;;;;;;;;;20.98;37.92;102125.03;5077696;28;4176;-50
2022/03/08 01:00:07;;;;;;;;;;;;;;;20.97;38.06;102120.66;5058526;28;4222;-49
2022/03/08 01:02:33;;;;;;;;;;;;;;;20.96;37.95;102133.56;5077012;28;5168;-50
2022/03/08 01:05:00;;;;;;;;;;;;;;;20.96;38.04;102125.69;5076732;28;4374;-50
2022/03/08 01:07:26;;;;;;;;;;;;;;;20.96;38.01;102131.44;5059770;28;4913;-49
2022/03/08 01:09:52;;;;;;;;;;;;;;;20.95;37.90;102129.91;5076604;28;4042;-49
2022/03/08 01:12:19;;;;;;;;;;;;;;;20.95;37.83;102135.69;5077861;28;5239;-48
2022/03/08 01:14:45;;;;;;;;;;;;;;;20.93;37.92;102124.78;5077137;28;4041;-49
2022/03/08 01:17:11;;;;;;;;;;;;;;;20.91;38.03;102130.44;5076590;28;4201;-52
2022/03/08 01:19:38;;;;;;;;;;;;;;;20.91;38.00;102121.00;5058390;28;4256;-49
2022/03/08 01:22:04;;;;;;;;;;;;;;;20.90;37.98;102123.16;5076885;28;4278;-51
2022/03/08 01:24:31;;;;;;;;;;;;;;;20.92;37.83;102108.88;5075938;28;4177;-49
2022/03/08 01:26:57;;;;;;;;;;;;;;;20.93;37.96;102107.50;5077410;28;4194;-50
2022/03/08 01:29:24;;;;;;;;;;;;;;;20.91;37.89;102107.41;5077299;28;4243;-53
2022/03/08 01:31:51;;;;;;;;;;;;;;;20.93;37.89;102115.41;5057869;28;4082;-48
2022/03/08 01:34:17;;;;;;;;;;;;;;;20.95;37.94;102112.66;5076273;28;4110;-52
2022/03/08 01:36:44;;;;;;;;;;;;;;;20.96;37.79;102104.75;5077106;28;3948;-49
2022/03/08 01:39:11;;;;;;;;;;;;;;;20.97;37.84;102112.03;5076777;28;4086;-50
2022/03/08 01:41:37;;;;;;;;;;;;;;;20.97;37.86;102106.28;5077167;28;4142;-50
2022/03/08 01:44:04;;;;;;;;;;;;;;;20.97;38.04;102109.16;5075727;28;4198;-49
2022/03/08 01:46:30;;;;;;;;;;;;;;;20.95;37.88;102106.88;5058966;28;4048;-47
2022/03/08 01:48:57;;;;;;;;;;;;;;;20.95;37.88;102094.63;5059389;28;4485;-51
2022/03/08 01:51:23;;;;;;;;;;;;;;;20.93;38.10;102110.38;5076271;28;5551;-47
2022/03/08 01:53:50;;;;;;;;;;;;;;;20.92;37.90;102103.13;5080084;28;4251;-51
2022/03/08 01:56:16;;;;;;;;;;;;;;;20.92;37.82;102108.88;5079759;28;5189;-48
2022/03/08 01:58:42;;;;;;;;;;;;;;;20.90;37.84;102105.88;5081103;28;4289;-48
2022/03/08 02:01:09;;;;;;;;;;;;;;;20.91;37.94;102107.41;5079162;28;4131;-51
2022/03/08 02:03:35;;;;;;;;;;;;;;;20.89;37.76;102101.50;5080472;28;4181;-51
2022/03/08 02:06:02;;;;;;;;;;;;;;;20.89;37.83;102110.13;5078895;28;4158;-50
2022/03/08 02:08:29;;;;;;;;;;;;;;;20.87;37.80;102101.38;5081102;28;3972;-51
2022/03/08 02:10:55;;;;;;;;;;;;;;;20.88;37.80;102107.88;5079891;28;4209;-49
2022/03/08 02:13:21;;;;;;;;;;;;;;;20.87;37.82;102110.00;5079393;28;4206;-50
2022/03/08 02:15:49;;;;;;;;;;;;;;;20.88;37.50;102097.09;5080302;28;4082;-53
2022/03/08 02:18:15;;;;;;;;;;;;;;;20.89;37.75;102104.38;5079215;28;4206;-48
2022/03/08 02:20:41;;;;;;;;;;;;;;;20.88;37.81;102099.97;5077399;28;4125;-48
2022/03/08 02:23:08;;;;;;;;;;;;;;;20.89;37.76;102087.09;5080390;28;4484;-49
2022/03/08 02:25:34;;;;;;;;;;;;;;;20.91;37.86;102101.63;5079411;28;4346;-50
2022/03/08 02:28:01;;;;;;;;;;;;;;;20.90;38.20;102094.34;5076560;28;4461;-52
2022/03/08 02:30:27;;;;;;;;;;;;;;;20.93;38.15;102095.97;5057318;28;5085;-52
2022/03/08 02:32:53;;;;;;;;;;;;;;;20.91;38.03;102095.88;5077859;28;4059;-48
2022/03/08 02:35:21;;;;;;;;;;;;;;;20.93;37.88;102093.09;5079534;28;4209;-47
2022/03/08 02:37:50;;;;;;;;;;;;;;;20.92;37.92;102093.75;5080024;28;4091;-48
2022/03/08 02:40:17;;;;;;;;;;;;;;;20.90;38.06;102091.47;5078487;28;4169;-51
2022/03/08 02:42:44;;;;;;;;;;;;;;;20.87;37.85;102086.97;5080747;28;4152;-50
2022/03/08 02:45:10;;;;;;;;;;;;;;;20.87;38.04;102086.97;5079390;28;4142;-50
2022/03/08 02:47:37;;;;;;;;;;;;;;;20.86;38.02;102094.09;5078197;28;4081;-49
2022/03/08 02:50:04;;;;;;;;;;;;;;;20.86;37.96;102096.97;5079989;28;4073;-49
2022/03/08 02:52:30;;;;;;;;;;;;;;;20.86;37.94;102094.09;5078022;28;4167;-50
2022/03/08 02:54:56;;;;;;;;;;;;;;;20.84;38.19;102093.22;5080680;28;4115;-49
2022/03/08 02:57:23;;;;;;;;;;;;;;;20.84;37.75;102105.47;5079442;28;4160;-49
2022/03/08 02:59:49;;;;;;;;;;;;;;;20.83;37.78;102095.34;5079020;28;3984;-51
2022/03/08 03:02:16;;;;;;;;;;;;;;;20.82;37.82;102105.38;5076555;28;4102;-52
2022/03/08 03:04:42;;;;;;;;;;;;;;;20.83;37.78;102097.47;5079649;28;4032;-49
2022/03/08 03:07:09;;;;;;;;;;;;;;;20.82;37.83;102104.59;5078832;28;4103;-49
2022/03/08 03:09:35;;;;;;;;;;;;;;;20.83;37.75;102101.09;5079130;28;5229;-52
2022/03/08 03:12:01;;;;;;;;;;;;;;;20.83;37.80;102095.34;5079243;28;4362;-48
2022/03/08 03:14:28;;;;;;;;;;;;;;;20.84;37.70;102105.47;5079166;28;4153;-52
2022/03/08 03:16:54;;;;;;;;;;;;;;;20.86;37.64;102105.59;5079060;28;4194;-50
2022/03/08 03:19:20;;;;;;;;;;;;;;;20.86;37.82;102096.97;5079151;28;3976;-49
2022/03/08 03:21:47;;;;;;;;;;;;;;;20.88;37.77;102093.47;5079547;28;4142;-49
2022/03/08 03:24:13;;;;;;;;;;;;;;;20.88;37.80;102102.13;5078163;28;4488;-48
2022/03/08 03:26:39;;;;;;;;;;;;;;;20.87;37.80;102100.63;5078405;28;4121;-51
2022/03/08 03:29:06;;;;;;;;;;;;;;;20.86;37.86;102105.59;5079528;28;4231;-50
2022/03/08 03:31:32;;;;;;;;;;;;;;;20.88;37.73;102099.97;5079079;28;4041;-51
2022/03/08 03:33:58;;;;;;;;;;;;;;;20.85;37.80;102103.38;5078725;28;4131;-51
2022/03/08 03:36:25;;;;;;;;;;;;;;;20.82;37.94;102105.38;5079820;28;4134;-49
2022/03/08 03:38:52;;;;;;;;;;;;;;;20.81;37.92;102103.84;5077769;28;4143;-49
2022/03/08 03:41:19;;;;;;;;;;;;;;;20.81;37.91;102103.84;5078385;28;4088;-49
2022/03/08 03:43:45;;;;;;;;;;;;;;;20.80;37.92;102113.09;5080218;28;4316;-52
2022/03/08 03:46:12;;;;;;;;;;;;;;;20.79;37.81;102112.34;5078481;28;5239;-51
2022/03/08 03:48:38;;;;;;;;;;;;;;;20.80;37.87;102108.13;5077168;28;4094;-51
2022/03/08 03:51:05;;;;;;;;;;;;;;;20.81;37.83;102103.84;5077315;28;4120;-51
2022/03/08 03:53:31;;;;;;;;;;;;;;;20.81;37.94;102103.84;5077836;28;4335;-49
2022/03/08 03:55:58;;;;;;;;;;;;;;;20.82;37.75;102104.59;5078212;28;4098;-49
2022/03/08 03:58:25;;;;;;;;;;;;;;;20.82;37.56;102105.38;5077215;28;4139;-48
2022/03/08 04:00:51;;;;;;;;;;;;;;;20.84;37.59;102107.59;5078499;28;4155;-50
2022/03/08 04:03:19;;;;;;;;;;;;;;;20.84;37.73;102108.34;5078617;28;5246;-51
2022/03/08 04:05:45;;;;;;;;;;;;;;;20.85;37.79;102109.13;5078453;28;4341;-50
2022/03/08 04:08:11;;;;;;;;;;;;;;;20.87;37.75;102112.88;5076724;28;4318;-50
2022/03/08 04:10:38;;;;;;;;;;;;;;;20.86;37.80;102105.59;5078468;28;4297;-51
2022/03/08 04:13:04;;;;;;;;;;;;;;;20.88;37.77;102108.63;5076271;28;4205;-49
2022/03/08 04:15:30;;;;;;;;;;;;;;;20.85;37.68;102109.88;5078834;28;4209;-48
2022/03/08 04:17:57;;;;;;;;;;;;;;;20.85;37.87;102104.13;5076624;28;4187;-51
2022/03/08 04:20:23;;;;;;;;;;;;;;;20.83;37.81;102109.75;5079199;28;4128;-53
2022/03/08 04:22:49;;;;;;;;;;;;;;;20.83;37.89;102109.75;5076993;28;5127;-52
2022/03/08 04:25:16;;;;;;;;;;;;;;;20.82;37.78;102111.13;5077576;28;4088;-48
2022/03/08 04:27:42;;;;;;;;;;;;;;;20.81;37.77;102109.59;5077992;28;4113;-49
2022/03/08 04:30:09;;;;;;;;;;;;;;;20.79;37.73;102106.59;5076809;28;3946;-48
2022/03/08 04:32:35;;;;;;;;;;;;;;;20.78;37.59;102102.22;5077763;28;3990;-49
2022/03/08 04:35:02;;;;;;;;;;;;;;;20.78;37.75;102105.09;5077100;28;4106;-49
2022/03/08 04:37:28;;;;;;;;;;;;;;;20.78;37.53;102102.22;5078632;28;4045;-52
2022/03/08 04:39:54;;;;;;;;;;;;;;;20.78;37.74;102099.34;5075513;28;4185;-49
2022/03/08 04:42:21;;;;;;;;;;;;;;;20.79;37.74;102097.97;5077459;28;4327;-50
2022/03/08 04:44:47;;;;;;;;;;;;;;;20.78;37.68;102099.34;5076247;28;4619;-49
2022/03/08 04:47:14;;;;;;;;;;;;;;;20.79;37.64;102106.59;5076614;28;4206;-47
2022/03/08 04:49:40;;;;;;;;;;;;;;;20.80;37.60;102102.34;5077541;28;4193;-49
2022/03/08 04:52:06;;;;;;;;;;;;;;;20.92;37.43;102097.38;5077869;28;4179;-50
2022/03/08 04:54:33;;;;;;;;;;;;;;;20.96;37.28;102096.13;5077272;28;4178;-48
2022/03/08 04:56:59;;;;;;;;;;;;;;;20.99;37.34;102089.13;5077470;28;3958;-50
2022/03/08 04:59:25;;;;;;;;;;;;;;;21.00;37.34;102090.63;5077503;28;4162;-47
2022/03/08 05:01:52;;;;;;;;;;;;;;;21.02;37.25;102105.16;5077395;28;4351;-50
2022/03/08 05:04:18;;;;;;;;;;;;;;;20.85;37.57;102098.34;5077854;28;5280;-50
2022/03/08 05:06:45;;;;;;;;;;;;;;;20.70;37.87;102111.06;5076139;28;5039;-48
2022/03/08 05:09:12;;;;;;;;;;;;;;;20.68;37.95;102113.84;5076810;28;5639;-49
2022/03/08 05:11:38;;;;;;;;;;;;;;;20.65;38.03;102106.44;5077732;28;4158;-52
2022/03/08 05:14:05;;;;;;;;;;;;;;;20.65;37.92;102114.31;5075826;28;4170;-49
2022/03/08 05:16:31;;;;;;;;;;;;;;;20.63;37.98;102122.81;5077625;28;4107;-49
2022/03/08 05:18:57;;;;;;;;;;;;;;;20.77;37.68;102120.84;5075641;28;4469;-51
2022/03/08 05:21:24;;;;;;;;;;;;;;;20.77;37.65;102126.63;5076860;28;4034;-48
2022/03/08 05:23:50;;;;;;;;;;;;;;;20.76;37.50;102130.13;5077716;28;4181;-50
2022/03/08 05:26:16;;;;;;;;;;;;;;;20.77;37.51;102126.63;5080180;28;4169;-51
2022/03/08 05:28:43;;;;;;;;;;;;;;;20.75;37.57;102129.34;5080507;28;4156;-51
2022/03/08 05:31:10;;;;;;;;;;;;;;;20.74;37.56;102127.88;5081927;28;4123;-49
2022/03/08 05:33:36;;;;;;;;;;;;;;;20.76;37.46;102133.00;5081241;28;5196;-51
2022/03/08 05:36:03;;;;;;;;;;;;;;;20.76;37.57;102136.63;5080670;28;4373;-48
2022/03/08 05:38:30;;;;;;;;;;;;;;;20.75;37.57;102138.00;5080725;28;4183;-49
2022/03/08 05:40:56;;;;;;;;;;;;;;;20.76;37.55;102142.41;5078290;28;4182;-52
2022/03/08 05:43:22;;;;;;;;;;;;;;;20.78;37.52;102150.41;5080543;28;4214;-50
2022/03/08 05:45:49;;;;;;;;;;;;;;;20.79;37.55;102143.28;5080154;28;5274;-48
2022/03/08 05:48:15;;;;;;;;;;;;;;;20.78;37.54;102145.41;5080929;28;5845;-49
2022/03/08 05:50:41;;;;;;;;;;;;;;;20.79;37.55;102152.66;5080835;28;4552;-49
2022/03/08 05:53:08;;;;;;;;;;;;;;;20.80;37.54;102153.41;5079363;28;4176;-49
2022/03/08 05:55:34;;;;;;;;;;;;;;;20.80;37.57;102159.16;5081826;28;4100;-56
2022/03/08 05:58:00;;;;;;;;;;;;;;;20.79;37.52;102158.41;5080705;28;4543;-48
2022/03/08 06:00:27;;;;;;;;;;;;;;;20.75;37.71;102157.41;5079974;28;4232;-51
2022/03/08 06:02:53;;;;;;;;;;;;;;;20.77;37.71;102161.16;5079316;28;4496;-49
2022/03/08 06:05:22;;;;;;;;;;;;;;;20.76;37.64;102151.03;5081118;28;4376;-50
2022/03/08 06:07:51;;;;;;;;;;;;;;;20.77;37.53;102154.66;5079687;28;3930;-51
2022/03/08 06:10:17;;;;;;;;;;;;;;;20.76;37.54;102153.91;5079765;28;5405;-48
2022/03/08 06:12:44;;;;;;;;;;;;;;;20.75;37.63;102155.25;5079988;28;4251;-50
2022/03/08 06:15:11;;;;;;;;;;;;;;;20.76;37.50;102159.66;5080822;28;4197;-51
2022/03/08 06:17:37;;;;;;;;;;;;;;;20.77;37.58;102155.41;5079725;28;4092;-50
2022/03/08 06:20:04;;;;;;;;;;;;;;;20.76;37.63;102141.66;5061028;28;5236;-48
2022/03/08 06:22:30;;;;;;;;;;;;;;;20.75;37.48;102155.25;5081360;28;4125;-50
2022/03/08 06:24:56;;;;;;;;;;;;;;;20.78;37.51;102154.03;5079134;28;4126;-51
2022/03/08 06:27:23;;;;;;;;;;;;;;;20.77;37.62;102154.66;5080384;28;5325;-49
2022/03/08 06:29:51;;;;;;;;;;;;;;;20.78;37.55;102145.41;5079904;28;4580;-48
2022/03/08 06:32:19;;;;;;;;;;;;;;;20.79;37.63;102152.66;5078700;28;5284;-51
2022/03/08 06:34:45;;;;;;;;;;;;;;;20.80;37.64;102147.66;5079922;28;4095;-50
2022/03/08 06:37:12;;;;;;;;;;;;;;;20.78;37.62;102154.03;5077682;28;5343;-50
2022/03/08 06:39:38;;;;;;;;;;;;;;;20.77;37.63;102149.66;5079423;28;4069;-49
2022/03/08 06:42:04;;;;;;;;;;;;;;;20.75;37.67;102143.00;5075772;28;4001;-48
2022/03/08 06:44:31;;;;;;;;;;;;;;;20.77;37.54;102143.13;5078257;28;4361;-51
2022/03/08 06:46:58;;;;;;;;;;;;;;;20.76;37.63;102148.16;5077278;28;4293;-49
2022/03/08 06:49:24;;;;;;;;;;;;;;;20.73;37.58;102149.41;5076867;28;4339;-51
2022/03/08 06:51:51;;;;;;;;;;;;;;;20.72;37.66;102139.25;5077032;28;4007;-51
2022/03/08 06:54:17;;;;;;;;;;;;;;;20.74;37.57;102139.38;5077897;28;4148;-49
2022/03/08 06:56:44;;;;;;;;;;;;;;;20.74;37.67;102142.25;5073731;28;4307;-48
2022/03/08 06:59:10;;;;;;;;;;;;;;;20.74;37.61;102145.13;5078833;28;4251;-50
2022/03/08 07:01:36;;;;;;;;;;;;;;;20.72;37.64;102142.13;5077027;28;4220;-51
2022/03/08 07:04:03;;;;;;;;;;;;;;;20.74;37.53;102148.00;5077665;28;4239;-48
2022/03/08 07:06:29;;;;;;;;;;;;;;;20.75;37.54;102143.00;5078282;28;4206;-50
2022/03/08 07:08:56;;;;;;;;;;;;;;;20.76;37.62;102153.16;5076278;28;4197;-50
2022/03/08 07:11:23;;;;;;;;;;;;;;;20.75;37.53;102149.50;5078328;28;4240;-53
2022/03/08 07:13:49;;;;;;;;;;;;;;;20.76;37.58;102148.16;5078981;28;4069;-49
2022/03/08 07:16:15;;;;;;;;;;;;;;;20.76;37.59;102151.03;5078041;28;4026;-49
2022/03/08 07:18:42;;;;;;;;;;;;;;;20.77;37.82;102161.16;5078990;28;4173;-49
2022/03/08 07:21:08;;;;;;;;;;;;;;;20.79;37.71;102154.78;5080501;28;3986;-49
2022/03/08 07:23:36;;;;;;;;;;;;;;;20.81;37.73;102161.44;5077326;28;4062;-49
2022/03/08 07:26:02;;;;;;;;;;;;;;;20.80;37.73;102165.69;5078230;28;4269;-50
2022/03/08 07:28:29;;;;;;;;;;;;;;;20.79;37.78;102160.53;5078740;28;4214;-48
2022/03/08 07:30:59;;;;;;;;;;;;;;;20.78;37.92;102174.19;5079399;28;4092;-48
2022/03/08 07:33:26;;;;;;;;;;;;;;;20.81;37.83;102177.97;5078982;28;5283;-48
2022/03/08 07:35:52;;;;;;;;;;;;;;;20.81;37.83;102167.19;5078906;28;4228;-49
2022/03/08 07:38:19;;;;;;;;;;;;;;;20.76;37.89;102171.19;5077673;28;4143;-51
2022/03/08 07:40:45;;;;;;;;;;;;;;;20.77;38.02;102169.78;5075778;28;4273;-50
2022/03/08 07:43:12;;;;;;;;;;;;;;;20.77;38.03;102178.44;5077943;28;4233;-49
2022/03/08 07:45:38;;;;;;;;;;;;;;;20.77;38.08;102172.69;5077823;28;4161;-50
2022/03/08 07:48:05;;;;;;;;;;;;;;;20.76;38.04;102176.94;5078039;28;4004;-51
2022/03/08 07:50:32;;;;;;;;;;;;;;;20.78;38.34;102177.06;5078945;28;4132;-49
2022/03/08 07:52:59;;;;;;;;;;;;;;;20.78;38.33;102182.84;5078097;28;4351;-49
2022/03/08 07:55:27;;;;;;;;;;;;;;;20.79;38.60;102181.44;5077838;28;5330;-48
2022/03/08 07:57:53;;;;;;;;;;;;;;;20.75;38.79;102178.28;5075166;28;5212;-47
2022/03/08 08:00:28;;;;;;;;;;;;;;;20.73;38.95;102174.53;5077557;28;4939;-48
2022/03/08 08:02:54;;;;;;;;;;;;;;;20.73;38.81;102166.66;5078025;28;4163;-50
2022/03/08 08:05:21;;;;;;;;;;;;;;;20.75;38.79;102169.66;5079768;28;4307;-49
2022/03/08 08:07:47;;;;;;;;;;;;;;;20.81;39.25;102164.31;5076899;28;3973;-49
2022/03/08 08:10:14;;;;;;;;;;;;;;;20.82;39.82;102170.81;5077275;28;4189;-52
2022/03/08 08:12:40;;;;;;;;;;;;;;;20.95;39.66;102169.50;5077705;28;4075;-68
2022/03/08 08:15:07;;;;;;;;;;;;;;;20.91;40.89;102164.22;5078542;28;4079;-67
2022/03/08 08:17:33;;;;;;;;;;;;;;;20.90;41.39;102166.34;5076850;28;3949;-68
2022/03/08 08:19:59;;;;;;;;;;;;;;;20.87;41.13;102161.09;5077738;28;4144;-68
2022/03/08 08:22:26;;;;;;;;;;;;;;;20.46;38.24;102161.25;5076088;28;4204;-73
2022/03/08 08:24:52;;;;;;;;;;;;;;;18.26;36.71;102164.34;5079093;28;4002;-70
2022/03/08 08:27:18;;;;;;;;;;;;;;;19.25;37.11;102156.56;5077740;28;4049;-67
2022/03/08 08:29:45;;;;;;;;;;;;;;;19.62;36.41;102159.16;5077226;28;3964;-68
2022/03/08 08:32:11;;;;;;;;;;;;;;;20.01;35.96;102149.63;5078081;28;4066;-67
2022/03/08 08:34:38;;;;;;;;;;;;;;;20.30;35.87;102143.66;5077963;28;6386;-67
2022/03/08 08:37:04;;;;;;;;;;;;;;;20.51;36.44;102152.28;5074071;28;4188;-68
2022/03/08 08:39:31;;;;;;;;;;;;;;;20.58;37.18;102153.47;5079560;28;4534;-68
2022/03/08 08:41:57;;;;;;;;;;;;;;;20.63;37.79;102158.09;5077998;28;4319;-68
2022/03/08 08:44:26;;;;;;;;;;;;;;;20.66;37.63;102156.09;5077197;28;4189;-67
2022/03/08 08:46:53;;;;;;;;;;;;;;;20.69;37.98;102166.41;5072748;28;4113;-67
2022/03/08 08:49:19;;;;;;;;;;;;;;;20.72;38.00;102159.41;5075776;28;4433;-67
2022/03/08 08:51:46;;;;;;;;;;;;;;;20.76;38.24;102165.41;5076881;28;4003;-67
2022/03/08 08:54:12;;;;;;;;;;;;;;;20.77;38.21;102166.91;5075081;28;5436;-67
2022/03/08 08:56:38;;;;;;;;;;;;;;;20.79;38.42;102164.16;5075237;28;4578;-67
2022/03/08 08:59:05;;;;;;;;;;;;;;;20.80;38.39;102170.69;5077062;28;4169;-67
2022/03/08 09:01:31;;;;;;;;;;;;;;;20.80;38.34;102162.03;5074713;28;4524;-67
2022/03/08 09:03:58;;;;;;;;;;;;;;;20.82;38.88;102167.94;5074434;28;4070;-67
2022/03/08 09:06:25;;;;;;;;;;;;;;;20.81;39.03;102167.19;5076535;28;4056;-67
2022/03/08 09:08:51;;;;;;;;;;;;;;;20.81;39.00;102172.94;5072645;28;4161;-68
2022/03/08 09:11:18;;;;;;;;;;;;;;;20.81;38.92;102161.44;5076372;28;4146;-68
2022/03/08 09:13:44;;;;;;;;;;;;;;;20.82;39.07;102162.94;5075781;28;4200;-68
2022/03/08 09:16:10;;;;;;;;;;;;;;;20.83;38.93;102157.94;5074593;28;4048;-68
2022/03/08 09:18:37;;;;;;;;;;;;;;;20.81;39.01;102158.56;5077346;28;4234;-68
2022/03/08 09:21:03;;;;;;;;;;;;;;;20.83;39.04;102157.94;5070747;28;5743;-67
2022/03/08 09:23:30;;;;;;;;;;;;;;;20.82;39.00;102156.41;5074146;28;4280;-67
2022/03/08 09:25:57;;;;;;;;;;;;;;;20.85;39.16;102161.69;5075898;28;4225;-70
2022/03/08 09:28:23;;;;;;;;;;;;;;;20.85;39.16;102161.69;5073894;28;4534;-67
2022/03/08 09:30:49;;;;;;;;;;;;;;;20.92;39.55;102148.44;5059340;28;4054;-65
2022/03/08 09:33:16;;;;;;;;;;;;;;;20.96;39.47;102157.34;5075111;28;4155;-68
2022/03/08 09:35:44;;;;;;;;;;;;;;;20.96;39.50;102166.00;5075974;28;3936;-67
2022/03/08 09:38:11;;;;;;;;;;;;;;;20.92;39.44;102171.50;5076933;28;4291;-63
2022/03/08 09:40:38;;;;;;;;;;;;;;;20.89;39.26;102179.25;5075208;28;4179;-69
2022/03/08 09:43:04;;;;;;;;;;;;;;;20.82;39.52;102171.59;5075372;28;4300;-65
2022/03/08 09:45:30;;;;;;;;;;;;;;;19.40;33.89;102171.94;5074592;28;4032;-65
2022/03/08 09:47:57;;;;;;;;;;;;;;;18.45;33.14;102180.81;5075320;28;4210;-66
2022/03/08 09:50:23;;;;;;;;;;;;;;;18.42;32.14;102177.78;5074600;28;4069;-65
2022/03/08 09:52:50;;;;;;;;;;;;;;;18.21;31.29;102171.88;5073782;28;3917;-68
2022/03/08 09:55:16;;;;;;;;;;;;;;;19.06;32.14;102165.25;5059514;28;5466;-68
2022/03/08 09:57:42;;;;;;;;;;;;;;;19.73;32.30;102165.66;5077402;28;5293;-68
2022/03/08 10:00:09;;;;;;;;;;;;;;;20.08;33.86;102175.28;5076749;28;4188;-68
2022/03/08 10:02:42;;;;;;;;;;;;;;;20.29;34.37;102176.66;5076241;28;4240;-68
2022/03/08 10:05:08;;;;;;;;;;;;;;;20.40;34.39;102169.47;5076327;28;4044;-68
2022/03/08 10:07:35;;;;;;;;;;;;;;;20.47;34.77;102172.13;5076786;28;4045;-68
2022/03/08 10:10:01;;;;;;;;;;;;;;;20.51;34.79;102166.66;5076146;28;4212;-67
2022/03/08 10:12:57;;;;;;;;;;;;;;;20.54;35.36;102167.53;5078784;28;5312;-67
2022/03/08 10:15:23;;;;;;;;;;;;;;;20.55;35.76;102157.56;5080570;28;4084;-68
2022/03/08 10:17:49;;;;;;;;;;;;;;;20.57;36.07;102165.56;5080941;28;4118;-67
2022/03/08 10:20:26;;;;;;;;;;;;;;;20.58;36.06;102149.84;5078915;28;4211;-67
2022/03/08 10:22:52;;;;;;;;;;;;;;;20.59;36.22;102152.09;5080073;28;4158;-65
2022/03/08 10:25:19;;;;;;;;;;;;;;;20.60;36.36;102158.59;5078083;28;4066;-67
2022/03/08 10:27:51;;;;;;;;;;;;;;;20.62;36.47;102144.34;5079649;28;4038;-67
2022/03/08 10:30:18;;;;;;;;;;;;;;;20.61;36.72;102149.34;5079355;28;4091;-66
2022/03/08 10:33:02;;;;;;;;;;;;;;;20.64;36.74;102153.13;5079960;28;4254;-67
2022/03/08 10:35:28;;;;;;;;;;;;;;;20.65;36.89;102149.59;5079799;28;3976;-67
2022/03/08 10:37:58;;;;;;;;;;;;;;;20.65;36.96;102143.84;5079216;28;4158;-67
2022/03/08 10:40:32;;;;;;;;;;;;;;;20.68;37.27;102150.47;5069881;28;4065;-67
2022/03/08 10:42:59;;;;;;;;;;;;;;;20.67;37.38;102143.25;5078965;28;4715;-67
2022/03/08 10:45:26;;;;;;;;;;;;;;;20.69;37.48;102137.63;5076624;28;4274;-66
2022/03/08 10:47:53;;;;;;;;;;;;;;;20.70;37.69;102142.00;5079778;28;4146;-65
2022/03/08 10:50:20;;;;;;;;;;;;;;;20.70;37.68;102144.88;5078862;28;5268;-67
2022/03/08 10:52:47;;;;;;;;;;;;;;;20.69;37.85;102131.84;5078932;28;4171;-67
2022/03/08 10:55:13;;;;;;;;;;;;;;;20.70;38.01;102142.00;5078721;28;3946;-66
2022/03/08 10:57:40;;;;;;;;;;;;;;;20.70;38.02;102128.34;5079872;28;4138;-66
2022/03/08 11:00:16;;;;;;;;;;;;;;;20.73;38.04;102131.34;5079302;28;4202;-66
2022/03/08 11:02:46;;;;;;;;;;;;;;;20.74;38.39;102133.63;5078938;28;3984;-67
2022/03/08 11:05:13;;;;;;;;;;;;;;;20.76;38.53;102133.75;5077601;28;4019;-70
2022/03/08 11:07:40;;;;;;;;;;;;;;;20.78;38.86;102133.16;5078094;28;4048;-68
2022/03/08 11:10:08;;;;;;;;;;;;;;;20.80;39.01;102131.16;5080546;28;4065;-67
2022/03/08 11:12:34;;;;;;;;;;;;;;;20.79;38.94;102129.63;5079407;28;4194;-67
2022/03/08 11:15:06;;;;;;;;;;;;;;;20.64;38.72;102127.97;5079085;28;5222;-66
2022/03/08 11:17:33;;;;;;;;;;;;;;;20.46;38.81;102124.59;5077587;28;4216;-66
2022/03/08 11:19:59;;;;;;;;;;;;;;;20.21;37.40;102118.59;5078469;28;4325;-66
2022/03/08 11:22:26;;;;;;;;;;;;;;;20.13;37.26;102124.53;5079245;28;5574;-66
2022/03/08 11:24:52;;;;;;;;;;;;;;;20.07;36.39;102122.03;5060862;28;3989;-67
2022/03/08 11:27:18;;;;;;;;;;;;;;;20.11;35.89;102120.78;5067937;28;4192;-67
2022/03/08 11:29:45;;;;;;;;;;;;;;;20.07;35.95;102109.78;5061191;28;4191;-66
2022/03/08 11:32:12;;;;;;;;;;;;;;;20.01;35.21;102107.22;5077942;28;4162;-67
2022/03/08 11:34:44;;;;;;;;;;;;;;;19.99;34.89;102103.47;5078012;28;5299;-67
2022/03/08 11:37:12;;;;;;;;;;;;;;;19.93;34.84;102098.06;5077826;28;5711;-66
2022/03/08 11:39:43;;;;;;;;;;;;;;;19.92;34.50;102093.69;5068336;28;5272;-66
2022/03/08 11:42:15;;;;;;;;;;;;;;;19.92;34.21;102090.06;5061331;28;4529;-66
2022/03/08 11:44:41;;;;;;;;;;;;;;;19.91;33.95;102095.06;5078366;28;4155;-67
2022/03/08 11:47:09;;;;;;;;;;;;;;;19.89;33.65;102089.16;5058807;28;4069;-66
2022/03/08 11:49:43;;;;;;;;;;;;;;;19.86;33.61;102087.53;5078330;28;4161;-66
2022/03/08 11:52:19;;;;;;;;;;;;;;;19.82;32.95;102088.00;5077403;28;3991;-66
2022/03/08 11:54:57;;;;;;;;;;;;;;;19.82;32.96;102085.13;5077442;28;4045;-66
2022/03/08 11:57:42;;;;;;;;;;;;;;;19.85;32.32;102078.13;5072913;28;4169;-66
2022/03/08 12:00:18;;;;;;;;;;;;;;;19.73;31.63;102065.06;5075777;28;4184;-66
2022/03/08 12:02:45;;;;;;;;;;;;;;;19.47;31.30;102070.50;5076774;28;4205;-67
2022/03/08 12:05:30;;;;;;;;;;;;;;;19.66;31.58;102067.50;5070903;28;4029;-65
2022/03/08 12:07:57;;;;;;;;;;;;;;;19.84;30.94;102059.38;5074619;28;5209;-66
2022/03/08 12:10:24;;;;;;;;;;;;;;;19.98;31.35;102056.72;5074517;28;4028;-67
2022/03/08 12:13:10;;;;;;;;;;;;;;;19.95;31.83;102052.22;5076311;28;4122;-68
2022/03/08 12:15:57;;;;;;;;;;;;;;;19.69;31.48;102047.53;5078170;28;4032;-67
2022/03/08 12:18:43;;;;;;;;;;;;;;;19.49;31.50;102053.38;5078693;28;4142;-68
2022/03/08 12:21:15;;;;;;;;;;;;;;;19.43;30.91;102050.09;5078255;28;5379;-68
2022/03/08 12:23:52;;;;;;;;;;;;;;;19.35;31.18;102058.88;5078073;28;4012;-69
2022/03/08 12:26:21;;;;;;;;;;;;;;;19.28;30.51;102054.06;5078174;28;4057;-69
2022/03/08 12:29:11;;;;;;;;;;;;;;;19.29;30.45;102051.97;5076788;28;4291;-68
2022/03/08 12:32:05;;;;;;;;;;;;;;;19.19;30.45;102052.00;5077215;28;5173;-68
2022/03/08 12:34:35;;;;;;;;;;;;;;;19.21;30.24;102041.41;5076058;28;5383;-68
2022/03/08 12:37:23;;;;;;;;;;;;;;;19.22;30.24;102045.81;5077583;28;4189;-68
2022/03/08 12:39:57;;;;;;;;;;;;;;;19.19;30.06;102049.88;5077928;28;4337;-68
2022/03/08 12:42:24;;;;;;;;;;;;;;;19.17;29.75;102046.13;5077425;28;4328;-68
2022/03/08 12:45:17;;;;;;;;;;;;;;;19.18;29.50;102041.91;5076295;28;4226;-68
2022/03/08 12:47:47;;;;;;;;;;;;;;;19.29;29.88;102035.50;5076068;28;4032;-67
2022/03/08 12:50:14;;;;;;;;;;;;;;;19.41;29.42;102030.59;5074394;28;4014;-68